Time;durP1;ratioP1;P1;durP2;ratioP2;P2;SDS_P1;SDS_P2;PMS_P1;PMS_P2;Temp;Humidity;BMP_temperature;BMP_pressure;BME280_temperature;BME280_humidity;BME280_pressure;Samples;Min_cycle;Max_cycle;Signal;HPM_P1;HPM_P2
2021/05/13 00:01:31;;;;;;;8.10;6.87;;;12.80;70.00;;;;;;5042067;28;20170;-84
2021/05/13 00:03:57;;;;;;;8.60;7.50;;;12.70;70.00;;;;;;5044172;28;20661;-85
2021/05/13 00:06:23;;;;;;;10.23;6.77;;;12.70;70.30;;;;;;5045204;28;20250;-85
2021/05/13 00:08:56;;;;;;;11.80;6.63;;;12.70;70.40;;;;;;5040221;28;20181;-85
2021/05/13 00:11:32;;;;;;;8.63;6.45;;;12.60;70.50;;;;;;5040268;28;20189;-85
2021/05/13 00:14:00;;;;;;;13.45;7.07;;;12.60;70.60;;;;;;5038817;28;20204;-84
2021/05/13 00:16:32;;;;;;;7.25;6.00;;;12.60;70.70;;;;;;5036904;28;20274;-85
2021/05/13 00:19:00;;;;;;;6.90;5.95;;;12.60;70.80;;;;;;5036869;28;20220;-85
2021/05/13 00:21:26;;;;;;;11.25;7.40;;;12.60;70.80;;;;;;5036153;28;20188;-85
2021/05/13 00:23:53;;;;;;;9.77;6.80;;;12.60;70.80;;;;;;5039254;28;20190;-84
2021/05/13 00:26:34;;;;;;;8.60;7.20;;;12.70;70.80;;;;;;5037176;28;20178;-83
2021/05/13 00:29:01;;;;;;;8.55;7.28;;;12.60;70.90;;;;;;5038268;28;20173;-83
2021/05/13 00:31:26;;;;;;;12.40;8.75;;;12.60;71.00;;;;;;5041291;28;20307;-84
2021/05/13 00:33:52;;;;;;;14.40;6.97;;;12.50;71.00;;;;;;5034303;28;20210;-85
2021/05/13 00:36:17;;;;;;;12.97;7.97;;;12.50;71.10;;;;;;5039332;28;20228;-83
2021/05/13 00:38:43;;;;;;;10.27;7.00;;;12.50;71.10;;;;;;5035237;28;20174;-83
2021/05/13 00:41:09;;;;;;;10.47;7.93;;;12.50;71.20;;;;;;5036667;28;20170;-83
2021/05/13 00:46:56;;;;;;;10.75;7.40;;;12.30;71.70;;;;;;5044183;28;20169;-83
2021/05/13 00:49:23;;;;;;;12.97;8.83;;;12.30;71.80;;;;;;5043527;28;20240;-85
2021/05/13 00:51:49;;;;;;;10.32;8.15;;;12.40;71.60;;;;;;5042212;28;20249;-83
2021/05/13 00:54:18;;;;;;;10.27;8.23;;;12.50;71.60;;;;;;5043861;28;20244;-84
2021/05/13 00:56:44;;;;;;;10.50;8.05;;;12.50;71.60;;;;;;5042361;28;20503;-84
2021/05/13 00:59:11;;;;;;;11.57;8.48;;;12.30;71.70;;;;;;5036252;28;20178;-83
2021/05/13 01:01:48;;;;;;;9.65;7.50;;;12.30;72.00;;;;;;5033163;28;20204;-84
2021/05/13 01:04:19;;;;;;;11.52;8.48;;;12.30;72.20;;;;;;5038414;28;20209;-83
2021/05/13 01:06:46;;;;;;;10.43;8.27;;;12.40;72.20;;;;;;5039658;28;20579;-83
2021/05/13 01:09:19;;;;;;;13.00;8.88;;;12.40;71.90;;;;;;5039446;28;20197;-84
2021/05/13 01:11:45;;;;;;;11.02;8.43;;;12.30;72.00;;;;;;5046641;28;20168;-84
2021/05/13 01:16:49;;;;;;;14.30;10.20;;;12.40;71.90;;;;;;5037050;28;20795;-85
2021/05/13 01:19:16;;;;;;;13.68;8.80;;;12.40;71.90;;;;;;5035531;28;20260;-84
2021/05/13 01:21:45;;;;;;;14.65;8.90;;;12.40;71.80;;;;;;5034337;28;20182;-85
2021/05/13 01:24:12;;;;;;;12.68;8.35;;;12.30;72.10;;;;;;5036080;28;20253;-84
2021/05/13 01:26:41;;;;;;;12.40;9.30;;;12.40;72.10;;;;;;5036553;28;20174;-84
2021/05/13 01:29:06;;;;;;;12.25;9.93;;;12.20;72.10;;;;;;5034284;28;20182;-84
2021/05/13 01:31:32;;;;;;;11.27;9.93;;;12.20;72.40;;;;;;5033412;28;20625;-85
2021/05/13 01:33:58;;;;;;;15.67;10.07;;;12.30;72.60;;;;;;5033583;28;20216;-84
2021/05/13 01:36:23;;;;;;;11.07;8.67;;;12.40;72.40;;;;;;5035073;28;20262;-85
2021/05/13 01:38:49;;;;;;;10.70;9.60;;;12.50;72.10;;;;;;5035843;28;20212;-84
2021/05/13 01:41:15;;;;;;;17.80;10.60;;;12.50;72.00;;;;;;5046636;28;20177;-84
2021/05/13 01:43:40;;;;;;;16.07;10.10;;;12.50;72.10;;;;;;5058220;28;20221;-84
2021/05/13 01:46:06;;;;;;;21.50;10.13;;;12.40;72.20;;;;;;5045812;28;20360;-84
2021/05/13 01:48:35;;;;;;;17.97;9.50;;;12.40;72.10;;;;;;5035911;28;20695;-84
2021/05/13 01:51:01;;;;;;;16.25;9.75;;;12.40;72.20;;;;;;5035560;28;20657;-84
2021/05/13 01:53:26;;;;;;;13.50;11.07;;;12.50;72.20;;;;;;5036296;28;20255;-84
2021/05/13 01:55:52;;;;;;;13.60;9.80;;;12.40;72.20;;;;;;5036118;28;20648;-84
2021/05/13 01:58:18;;;;;;;14.30;10.13;;;12.40;72.30;;;;;;5034965;28;20609;-84
2021/05/13 02:00:45;;;;;;;11.10;9.40;;;12.40;72.40;;;;;;5035413;28;20178;-84
2021/05/13 02:03:11;;;;;;;11.27;8.65;;;12.40;72.40;;;;;;5036124;28;20221;-85
2021/05/13 02:05:37;;;;;;;14.38;10.32;;;12.50;72.30;;;;;;5037146;28;20210;-84
2021/05/13 02:08:04;;;;;;;13.03;10.70;;;12.50;72.30;;;;;;5045102;28;20185;-84
2021/05/13 02:10:30;;;;;;;16.33;11.15;;;12.60;72.30;;;;;;5058390;28;20424;-84
2021/05/13 02:12:56;;;;;;;13.50;10.33;;;12.60;72.50;;;;;;5060831;28;20186;-84
2021/05/13 02:15:23;;;;;;;14.82;10.52;;;12.60;72.40;;;;;;5038115;28;20217;-83
2021/05/13 02:17:49;;;;;;;16.13;9.70;;;12.70;72.20;;;;;;5058575;28;20185;-83
2021/05/13 02:20:21;;;;;;;18.15;10.45;;;12.80;71.90;;;;;;5042502;28;20269;-83
2021/05/13 02:22:47;;;;;;;14.00;10.45;;;12.70;71.80;;;;;;5040873;28;20235;-84
2021/05/13 02:25:13;;;;;;;13.30;9.97;;;12.70;71.90;;;;;;5041778;28;20380;-84
2021/05/13 02:27:39;;;;;;;14.25;10.48;;;12.70;71.90;;;;;;5041473;28;20185;-84
2021/05/13 02:30:07;;;;;;;17.88;12.35;;;12.80;72.00;;;;;;5042521;28;20573;-84
2021/05/13 02:32:33;;;;;;;13.73;11.25;;;12.80;71.80;;;;;;5040776;28;20229;-84
2021/05/13 02:34:59;;;;;;;15.38;12.50;;;12.80;71.70;;;;;;5042737;28;20590;-84
2021/05/13 02:37:25;;;;;;;18.50;11.07;;;12.80;71.60;;;;;;5040389;28;20182;-84
2021/05/13 02:39:51;;;;;;;17.70;12.10;;;12.80;71.70;;;;;;5040964;28;20186;-84
2021/05/13 02:42:17;;;;;;;14.77;11.80;;;12.80;71.60;;;;;;5040785;28;20201;-84
2021/05/13 02:44:44;;;;;;;19.13;12.30;;;12.70;71.90;;;;;;5041872;28;20473;-84
2021/05/13 02:47:10;;;;;;;19.67;13.55;;;12.60;72.10;;;;;;5042274;28;20245;-85
2021/05/13 02:49:35;;;;;;;18.10;12.65;;;12.60;72.40;;;;;;5042759;28;20220;-85
2021/05/13 02:52:01;;;;;;;15.77;12.10;;;12.60;72.60;;;;;;5041474;28;20198;-85
2021/05/13 02:54:27;;;;;;;18.07;13.40;;;12.50;72.80;;;;;;5042159;28;20467;-85
2021/05/13 02:56:52;;;;;;;20.87;13.20;;;12.50;73.00;;;;;;5041440;28;20645;-85
2021/05/13 02:59:18;;;;;;;22.53;13.90;;;12.50;73.00;;;;;;5040646;28;20204;-84
2021/05/13 03:01:44;;;;;;;21.60;14.00;;;12.50;73.20;;;;;;5040865;28;20177;-84
2021/05/13 03:04:10;;;;;;;25.73;15.97;;;12.50;73.20;;;;;;5042896;28;20209;-84
2021/05/13 03:06:38;;;;;;;21.45;15.13;;;12.50;73.20;;;;;;5041475;28;20178;-84
2021/05/13 03:09:07;;;;;;;19.13;14.48;;;12.50;73.40;;;;;;5041734;28;20174;-84
2021/05/13 03:11:32;;;;;;;17.98;14.30;;;12.50;73.40;;;;;;5041605;28;20174;-84
2021/05/13 03:14:01;;;;;;;20.63;13.10;;;12.50;73.50;;;;;;5037902;28;20553;-84
2021/05/13 03:16:27;;;;;;;24.55;13.93;;;12.50;73.50;;;;;;5039215;28;20182;-84
2021/05/13 03:18:54;;;;;;;20.30;15.73;;;12.50;73.50;;;;;;5052680;28;20210;-84
2021/05/13 03:26:35;;;;;;;19.27;13.35;;;12.60;73.00;;;;;;5045682;28;20225;-84
2021/05/13 03:29:01;;;;;;;17.95;13.02;;;12.60;73.20;;;;;;5044115;28;20158;-85
2021/05/13 03:31:27;;;;;;;23.77;14.33;;;12.60;73.00;;;;;;5037677;28;20186;-85
2021/05/13 03:33:52;;;;;;;21.57;14.90;;;12.50;73.00;;;;;;5035554;28;20237;-85
2021/05/13 03:36:18;;;;;;;22.17;15.07;;;12.50;73.20;;;;;;5038083;28;20185;-84
2021/05/13 03:38:44;;;;;;;25.90;15.40;;;12.40;73.40;;;;;;5040683;28;20552;-84
2021/05/13 03:41:09;;;;;;;18.20;13.80;;;12.30;73.70;;;;;;5041404;28;20173;-84
2021/05/13 03:43:35;;;;;;;20.27;14.07;;;12.30;73.70;;;;;;5042390;28;20202;-85
2021/05/13 03:46:01;;;;;;;21.47;15.50;;;12.30;73.90;;;;;;5040495;28;20629;-85
2021/05/13 03:48:26;;;;;;;18.80;14.60;;;12.20;73.80;;;;;;5040494;28;20186;-85
2021/05/13 03:50:52;;;;;;;20.47;14.80;;;12.10;74.20;;;;;;5037170;28;20182;-86
2021/05/13 03:53:18;;;;;;;22.40;14.87;;;12.00;74.40;;;;;;5037457;28;20566;-85
2021/05/13 03:55:48;;;;;;;24.80;17.17;;;12.00;74.60;;;;;;5036937;28;20692;-86
2021/05/13 03:58:14;;;;;;;21.75;15.98;;;12.10;74.80;;;;;;5037121;28;20618;-86
2021/05/13 04:00:48;;;;;;;22.30;15.23;;;12.00;74.80;;;;;;5037019;28;20269;-86
2021/05/13 04:03:14;;;;;;;24.27;16.38;;;12.10;74.90;;;;;;5038957;28;20228;-85
2021/05/13 04:05:40;;;;;;;28.33;17.83;;;12.20;74.70;;;;;;5040669;28;20178;-85
2021/05/13 04:08:07;;;;;;;32.33;16.20;;;12.10;74.60;;;;;;5039426;28;20874;-85
2021/05/13 04:10:36;;;;;;;26.90;18.05;;;12.10;74.70;;;;;;5036681;28;20492;-85
2021/05/13 04:13:04;;;;;;;24.95;16.05;;;12.00;74.70;;;;;;5041925;28;20194;-85
2021/05/13 04:15:30;;;;;;;24.23;16.58;;;12.10;75.00;;;;;;5042993;28;20700;-84
2021/05/13 04:17:56;;;;;;;33.10;17.10;;;12.20;74.90;;;;;;5044676;28;20182;-84
2021/05/13 04:20:22;;;;;;;30.48;17.00;;;12.20;74.70;;;;;;5044015;28;20413;-84
2021/05/13 04:22:48;;;;;;;25.27;16.00;;;12.00;74.50;;;;;;5044839;28;20216;-84
2021/05/13 04:25:14;;;;;;;25.77;16.53;;;12.10;74.80;;;;;;5051144;28;20419;-85
2021/05/13 04:27:39;;;;;;;22.27;16.47;;;12.20;75.60;;;;;;5053379;28;20185;-85
2021/05/13 04:30:06;;;;;;;20.40;16.10;;;12.20;74.70;;;;;;5037713;28;20939;-85
2021/05/13 04:32:32;;;;;;;24.67;17.50;;;12.20;74.60;;;;;;5035548;28;20206;-85
2021/05/13 04:34:57;;;;;;;26.63;17.23;;;12.30;74.60;;;;;;5037361;28;20239;-85
2021/05/13 04:37:23;;;;;;;23.40;16.83;;;12.40;74.20;;;;;;5037156;28;20177;-84
2021/05/13 04:39:49;;;;;;;25.27;16.97;;;12.50;74.20;;;;;;5036954;28;20181;-85
2021/05/13 04:42:14;;;;;;;19.33;15.67;;;12.40;73.80;;;;;;5037227;28;20189;-85
2021/05/13 04:44:41;;;;;;;23.93;17.40;;;12.50;73.80;;;;;;5037935;28;20649;-85
2021/05/13 04:49:53;;;;;;;25.52;17.73;;;12.50;73.40;;;;;;5038118;28;20201;-85
2021/05/13 04:52:20;;;;;;;31.55;18.48;;;12.50;73.50;;;;;;5035768;28;20608;-85
2021/05/13 04:54:54;;;;;;;23.60;15.30;;;12.50;73.50;;;;;;5037520;28;20209;-85
2021/05/13 04:57:20;;;;;;;29.00;17.55;;;12.50;73.50;;;;;;5037432;28;20180;-85
2021/05/13 04:59:46;;;;;;;28.40;17.98;;;12.50;73.60;;;;;;5035719;28;20174;-86
2021/05/13 05:02:12;;;;;;;24.93;17.30;;;12.40;73.50;;;;;;5035017;28;20581;-86
2021/05/13 05:04:38;;;;;;;32.38;19.40;;;12.40;73.70;;;;;;5035409;28;20448;-85
2021/05/13 05:07:04;;;;;;;26.57;18.40;;;12.30;73.80;;;;;;5036473;28;20574;-86
2021/05/13 05:09:30;;;;;;;28.50;18.30;;;12.40;74.00;;;;;;5034183;28;20451;-86
2021/05/13 05:11:56;;;;;;;26.23;18.57;;;12.50;74.00;;;;;;5034588;28;20444;-85
2021/05/13 05:14:22;;;;;;;23.55;18.40;;;12.60;73.90;;;;;;5039118;28;20452;-85
2021/05/13 05:16:48;;;;;;;29.10;19.53;;;12.70;73.80;;;;;;5043028;28;20224;-85
2021/05/13 05:19:14;;;;;;;28.80;18.33;;;12.80;73.40;;;;;;5044119;28;20205;-85
2021/05/13 05:21:39;;;;;;;26.35;18.05;;;13.00;72.90;;;;;;5047242;28;20413;-86
2021/05/13 05:24:06;;;;;;;25.37;17.67;;;13.10;72.50;;;;;;5047173;28;20664;-86
2021/05/13 05:26:32;;;;;;;24.45;18.02;;;13.20;71.90;;;;;;5048096;28;20182;-85
2021/05/13 05:28:57;;;;;;;26.98;17.90;;;13.30;72.20;;;;;;5046389;28;20250;-85
2021/05/13 05:31:23;;;;;;;23.17;17.90;;;13.40;71.50;;;;;;5048290;28;20174;-86
2021/05/13 05:33:49;;;;;;;27.50;17.60;;;13.50;71.30;;;;;;5038777;28;20202;-84
2021/05/13 05:36:15;;;;;;;27.27;19.27;;;13.80;70.80;;;;;;5041812;28;20186;-86
2021/05/13 05:38:41;;;;;;;26.10;16.07;;;13.90;69.90;;;;;;5042356;28;20192;-85
2021/05/13 05:41:06;;;;;;;25.90;17.10;;;14.10;69.30;;;;;;5046216;28;20332;-85
2021/05/13 05:43:32;;;;;;;27.10;16.90;;;14.10;68.40;;;;;;5051045;28;20216;-85
2021/05/13 05:45:58;;;;;;;24.93;17.67;;;14.30;68.20;;;;;;5055424;28;20227;-86
2021/05/13 05:48:24;;;;;;;19.30;15.70;;;14.70;67.50;;;;;;5049658;28;20425;-84
2021/05/13 05:50:49;;;;;;;17.70;14.03;;;15.30;66.40;;;;;;5045180;28;20186;-84
2021/05/13 05:53:15;;;;;;;16.97;14.43;;;15.80;64.40;;;;;;5045881;28;20470;-83
2021/05/13 05:55:44;;;;;;;19.63;14.93;;;16.40;62.80;;;;;;5044703;28;20296;-83
2021/05/13 05:58:10;;;;;;;17.65;14.77;;;16.80;61.40;;;;;;5047937;28;20237;-84
2021/05/13 06:00:36;;;;;;;14.93;12.70;;;17.30;59.80;;;;;;5046866;28;20249;-83
2021/05/13 06:03:02;;;;;;;23.17;16.20;;;17.70;58.70;;;;;;5045409;28;20233;-84
2021/05/13 06:05:28;;;;;;;15.90;14.30;;;17.70;56.60;;;;;;5040984;28;20573;-85
2021/05/13 06:07:54;;;;;;;17.13;15.33;;;17.50;56.90;;;;;;5042060;28;20413;-84
2021/05/13 06:10:20;;;;;;;17.87;13.90;;;18.00;57.00;;;;;;5044833;28;20468;-85
2021/05/13 06:12:47;;;;;;;19.25;13.55;;;18.20;55.30;;;;;;5026703;28;20216;-85
2021/05/13 06:15:17;;;;;;;17.58;13.38;;;18.40;54.30;;;;;;5055129;28;20186;-85
2021/05/13 06:17:44;;;;;;;19.05;13.18;;;18.30;53.80;;;;;;5055629;28;20142;-84
2021/05/13 06:20:25;;;;;;;17.50;13.50;;;18.30;54.10;;;;;;5041006;28;20182;-84
2021/05/13 06:22:51;;;;;;;18.73;14.25;;;18.10;54.10;;;;;;5039076;28;20205;-84
2021/05/13 06:25:18;;;;;;;17.90;13.80;;;17.80;54.40;;;;;;5041137;28;20297;-83
2021/05/13 06:27:44;;;;;;;16.83;13.80;;;17.70;55.20;;;;;;5041888;28;20420;-83
2021/05/13 06:30:12;;;;;;;16.27;13.50;;;17.70;55.90;;;;;;5044251;28;20201;-83
2021/05/13 06:32:37;;;;;;;18.05;14.23;;;17.60;56.10;;;;;;5046809;28;20194;-81
2021/05/13 06:35:04;;;;;;;19.77;13.67;;;17.40;56.60;;;;;;5045158;28;20267;-83
2021/05/13 06:37:30;;;;;;;17.10;13.65;;;17.00;56.80;;;;;;5041430;28;20177;-83
2021/05/13 06:39:56;;;;;;;17.80;13.23;;;17.10;57.50;;;;;;5040179;28;20178;-83
2021/05/13 06:42:21;;;;;;;16.40;12.27;;;17.40;57.50;;;;;;5038528;28;20200;-83
2021/05/13 06:44:47;;;;;;;18.43;12.20;;;17.40;57.20;;;;;;5039199;28;20182;-84
2021/05/13 06:47:13;;;;;;;20.27;12.83;;;17.80;57.00;;;;;;5040647;28;20200;-83
2021/05/13 06:49:40;;;;;;;16.03;12.43;;;18.20;56.00;;;;;;5040285;28;20174;-83
2021/05/13 06:52:07;;;;;;;17.00;12.02;;;18.10;54.90;;;;;;5039283;28;20802;-84
2021/05/13 06:54:33;;;;;;;15.77;12.38;;;18.30;55.20;;;;;;5038322;28;20279;-84
2021/05/13 06:56:59;;;;;;;18.10;11.82;;;18.50;54.50;;;;;;5040668;28;20747;-84
2021/05/13 06:59:26;;;;;;;12.40;11.07;;;18.90;54.20;;;;;;5045583;28;20230;-83
2021/05/13 07:01:54;;;;;;;17.27;12.20;;;19.20;53.30;;;;;;5045596;28;20189;-85
2021/05/13 07:04:24;;;;;;;18.27;11.30;;;19.50;53.00;;;;;;5045872;28;20194;-85
2021/05/13 07:06:50;;;;;;;14.23;10.32;;;19.30;51.70;;;;;;5052191;28;20252;-84
2021/05/13 07:09:16;;;;;;;16.65;11.70;;;19.60;51.90;;;;;;5044579;28;20205;-83
2021/05/13 07:11:42;;;;;;;14.00;11.38;;;19.90;51.60;;;;;;5042213;28;20208;-84
2021/05/13 07:14:09;;;;;;;18.77;11.13;;;19.80;50.70;;;;;;5040276;28;20209;-83
2021/05/13 07:16:34;;;;;;;14.18;9.80;;;19.60;49.60;;;;;;5038018;28;20625;-83
2021/05/13 07:19:02;;;;;;;14.40;10.30;;;19.30;49.50;;;;;;5041634;28;20181;-84
2021/05/13 07:21:28;;;;;;;12.80;9.50;;;19.60;50.20;;;;;;5043967;28;20420;-83
2021/05/13 07:23:54;;;;;;;12.10;10.33;;;19.80;50.00;;;;;;5047435;28;20269;-83
2021/05/13 07:26:20;;;;;;;15.40;9.30;;;20.00;49.60;;;;;;5046365;28;20170;-83
2021/05/13 07:28:46;;;;;;;9.10;8.20;;;20.10;48.50;;;;;;5044704;28;20189;-83
2021/05/13 07:31:12;;;;;;;11.20;9.70;;;20.20;48.50;;;;;;5042898;28;20181;-83
2021/05/13 07:33:38;;;;;;;18.63;10.33;;;20.40;48.60;;;;;;5044152;28;20270;-83
2021/05/13 07:36:05;;;;;;;11.23;9.10;;;20.60;48.30;;;;;;5043437;28;20459;-84
2021/05/13 07:38:30;;;;;;;13.25;9.40;;;20.50;48.00;;;;;;5044802;28;20951;-84
2021/05/13 07:40:59;;;;;;;12.20;9.00;;;20.60;48.00;;;;;;5043744;28;20178;-84
2021/05/13 07:43:25;;;;;;;13.40;9.20;;;20.60;48.10;;;;;;5043554;28;20434;-83
2021/05/13 07:45:51;;;;;;;20.23;9.95;;;20.40;47.80;;;;;;5044528;28;20348;-84
2021/05/13 07:48:17;;;;;;;11.83;10.10;;;20.30;48.20;;;;;;5044458;28;20182;-83
2021/05/13 07:50:43;;;;;;;14.03;10.37;;;20.20;48.60;;;;;;5045145;28;20412;-84
2021/05/13 07:53:09;;;;;;;18.37;9.70;;;20.20;49.20;;;;;;5044355;28;20217;-84
2021/05/13 07:55:36;;;;;;;18.15;9.75;;;20.10;48.90;;;;;;5044964;28;20452;-84
2021/05/13 07:58:02;;;;;;;19.00;10.40;;;20.00;49.10;;;;;;5045818;28;20237;-84
2021/05/13 08:00:28;;;;;;;17.33;10.17;;;20.00;49.60;;;;;;5044518;28;20181;-85
2021/05/13 08:02:54;;;;;;;10.55;9.10;;;20.00;49.40;;;;;;5043165;28;20443;-84
2021/05/13 08:05:20;;;;;;;12.40;8.60;;;19.90;49.30;;;;;;5040330;28;20186;-84
2021/05/13 08:07:45;;;;;;;12.77;7.77;;;20.00;49.40;;;;;;5039379;28;20577;-84
2021/05/13 08:10:12;;;;;;;10.50;7.87;;;19.90;48.60;;;;;;5041410;28;20656;-84
2021/05/13 08:12:38;;;;;;;13.23;7.35;;;19.90;48.70;;;;;;5042764;28;20224;-84
2021/05/13 08:15:08;;;;;;;10.38;7.65;;;19.50;48.40;;;;;;5044679;28;20240;-84
2021/05/13 08:17:37;;;;;;;7.80;6.10;;;19.60;48.60;;;;;;5042401;28;20200;-84
2021/05/13 08:20:04;;;;;;;8.00;5.78;;;19.30;48.50;;;;;;5038677;28;20272;-84
2021/05/13 08:22:30;;;;;;;9.40;5.90;;;19.10;48.60;;;;;;5042920;28;20249;-85
2021/05/13 08:24:56;;;;;;;14.33;6.87;;;19.10;49.10;;;;;;5039737;28;20255;-84
2021/05/13 08:27:22;;;;;;;14.77;6.20;;;19.10;49.50;;;;;;5041168;28;20232;-84
2021/05/13 08:29:47;;;;;;;11.00;6.90;;;19.10;49.00;;;;;;5039960;28;20182;-84
2021/05/13 08:32:13;;;;;;;9.00;4.53;;;19.20;49.00;;;;;;5039005;28;20444;-84
2021/05/13 08:34:39;;;;;;;6.57;3.37;;;19.20;47.00;;;;;;5041351;28;20194;-85
2021/05/13 08:37:05;;;;;;;7.60;4.10;;;19.30;45.30;;;;;;5043621;28;20170;-85
2021/05/13 08:39:30;;;;;;;10.87;5.07;;;19.30;44.80;;;;;;5042076;28;20245;-85
2021/05/13 08:41:56;;;;;;;8.37;4.57;;;19.30;44.60;;;;;;5042718;28;20213;-85
2021/05/13 08:44:22;;;;;;;11.47;4.50;;;19.40;44.70;;;;;;5042924;28;20474;-85
2021/05/13 08:46:48;;;;;;;7.63;4.70;;;19.80;45.20;;;;;;5041867;28;20666;-83
2021/05/13 08:49:14;;;;;;;4.30;3.30;;;20.10;44.40;;;;;;5042104;28;20181;-84
2021/05/13 08:51:40;;;;;;;11.90;4.23;;;20.40;44.10;;;;;;5040575;28;20177;-84
2021/05/13 08:54:06;;;;;;;6.03;3.47;;;20.70;43.30;;;;;;5042265;28;20494;-83
2021/05/13 08:56:33;;;;;;;7.78;3.70;;;20.80;41.80;;;;;;5042663;28;20476;-83
2021/05/13 08:59:05;;;;;;;14.50;3.20;;;20.60;41.10;;;;;;5044993;28;20535;-83
2021/05/13 09:01:33;;;;;;;6.50;4.10;;;20.60;40.90;;;;;;5025650;28;20470;-84
2021/05/13 09:04:01;;;;;;;9.07;2.63;;;20.70;42.60;;;;;;5043023;28;20460;-84
2021/05/13 09:06:43;;;;;;;5.53;3.07;;;20.80;40.80;;;;;;5044225;28;20420;-84
2021/05/13 09:09:19;;;;;;;4.87;2.67;;;20.60;39.80;;;;;;5046394;28;20428;-84
2021/05/13 09:11:51;;;;;;;2.63;2.10;;;21.20;40.60;;;;;;5044442;28;20460;-84
2021/05/13 09:14:31;;;;;;;17.33;2.83;;;21.40;40.30;;;;;;5041718;28;20483;-84
2021/05/13 09:16:58;;;;;;;11.50;2.40;;;21.10;38.30;;;;;;5041968;28;20449;-84
2021/05/13 09:19:31;;;;;;;3.40;2.00;;;21.40;38.70;;;;;;5042795;28;20424;-84
2021/05/13 09:22:06;;;;;;;5.13;2.57;;;21.50;40.00;;;;;;5041838;28;20463;-84
2021/05/13 09:24:52;;;;;;;3.00;2.10;;;21.50;38.30;;;;;;5042605;28;20488;-84
2021/05/13 09:27:31;;;;;;;8.00;3.30;;;21.30;38.10;;;;;;5043315;28;20446;-84
2021/05/13 09:30:01;;;;;;;4.37;2.03;;;21.40;39.50;;;;;;5049725;28;20417;-84
2021/05/13 09:32:27;;;;;;;2.33;1.97;;;21.60;38.30;;;;;;5050777;28;20444;-84
2021/05/13 09:34:53;;;;;;;2.53;2.03;;;21.60;38.40;;;;;;5052127;28;20464;-85
2021/05/13 09:37:18;;;;;;;6.60;2.10;;;21.70;40.90;;;;;;5056280;28;20154;-84
2021/05/13 09:39:49;;;;;;;11.80;2.70;;;21.90;40.30;;;;;;5055751;28;20170;-83
2021/05/13 09:42:19;;;;;;;3.63;1.97;;;21.90;38.10;;;;;;5054376;28;20511;-83
2021/05/13 09:44:48;;;;;;;13.50;2.90;;;22.00;38.10;;;;;;5054489;28;20426;-83
2021/05/13 09:47:21;;;;;;;6.27;2.13;;;21.90;36.90;;;;;;5052442;28;20495;-84
2021/05/13 09:50:02;;;;;;;12.07;1.80;;;22.10;36.50;;;;;;5053699;28;20420;-84
2021/05/13 09:52:51;;;;;;;5.93;2.10;;;22.10;37.30;;;;;;5051019;28;20440;-84
2021/05/13 09:55:21;;;;;;;2.47;1.87;;;22.20;36.30;;;;;;5051969;28;20598;-85
2021/05/13 09:58:06;;;;;;;5.43;2.40;;;22.50;38.30;;;;;;5053172;28;20377;-84
2021/05/13 10:00:43;;;;;;;11.47;2.23;;;22.30;36.80;;;;;;5054334;28;20393;-85
2021/05/13 10:03:13;;;;;;;5.17;2.20;;;22.20;36.70;;;;;;5053878;28;20412;-83
2021/05/13 10:05:42;;;;;;;7.30;2.67;;;22.30;37.70;;;;;;5056199;28;20424;-84
2021/05/13 10:08:09;;;;;;;3.93;2.07;;;21.90;36.90;;;;;;5054542;28;20468;-84
2021/05/13 10:10:35;;;;;;;7.43;2.40;;;21.30;37.40;;;;;;5056200;28;20424;-85
2021/05/13 10:13:02;;;;;;;3.63;2.50;;;21.30;39.00;;;;;;5055372;28;20496;-82
2021/05/13 10:15:28;;;;;;;5.57;2.07;;;21.60;40.60;;;;;;5055015;28;20487;-84
2021/05/13 10:17:57;;;;;;;3.00;1.90;;;21.30;38.90;;;;;;5054592;28;20417;-82
2021/05/13 10:20:26;;;;;;;5.60;2.00;;;21.20;38.60;;;;;;5055449;28;20467;-82
2021/05/13 10:22:53;;;;;;;8.80;3.00;;;21.10;39.40;;;;;;5037766;28;20435;-82
2021/05/13 10:25:23;;;;;;;6.03;2.37;;;21.30;40.00;;;;;;5052372;28;20416;-86
2021/05/13 10:27:51;;;;;;;3.93;2.00;;;21.30;39.00;;;;;;5055829;28;20459;-84
2021/05/13 10:30:21;;;;;;;5.57;2.00;;;21.40;39.30;;;;;;5047973;28;20491;-83
2021/05/13 10:33:08;;;;;;;10.50;2.10;;;21.40;39.30;;;;;;5042237;28;20475;-83
2021/05/13 10:35:35;;;;;;;8.33;2.13;;;21.50;40.10;;;;;;5038344;28;20459;-85
2021/05/13 10:38:06;;;;;;;3.80;1.60;;;21.60;40.90;;;;;;5038119;28;20475;-84
2021/05/13 10:40:47;;;;;;;7.97;2.03;;;21.30;38.60;;;;;;5038686;28;20424;-85
2021/05/13 10:43:14;;;;;;;3.83;1.80;;;21.00;39.20;;;;;;5038503;28;20444;-84
2021/05/13 10:45:44;;;;;;;5.23;1.90;;;20.90;39.50;;;;;;5054752;28;20424;-84
2021/05/13 10:48:17;;;;;;;5.27;2.10;;;21.00;40.30;;;;;;5059528;28;20408;-83
2021/05/13 10:51:02;;;;;;;3.33;1.70;;;21.30;40.70;;;;;;5056104;28;20428;-85
2021/05/13 10:53:34;;;;;;;5.80;2.23;;;21.30;40.10;;;;;;5058609;28;20487;-85
2021/05/13 10:56:23;;;;;;;5.60;1.80;;;21.60;40.10;;;;;;5057207;28;21097;-83
2021/05/13 10:59:08;;;;;;;8.23;2.10;;;21.90;40.00;;;;;;5053203;28;20400;-85
2021/05/13 11:01:53;;;;;;;4.77;2.20;;;22.10;39.20;;;;;;5037392;28;20424;-84
2021/05/13 11:04:22;;;;;;;6.33;2.00;;;22.30;38.10;;;;;;5040955;28;20432;-85
2021/05/13 11:06:48;;;;;;;2.50;1.87;;;22.50;37.50;;;;;;5041447;28;20427;-84
2021/05/13 11:09:43;;;;;;;5.87;2.37;;;22.60;36.00;;;;;;5046553;28;20435;-85
2021/05/13 11:12:11;;;;;;;3.10;2.00;;;22.80;36.30;;;;;;5039171;28;20444;-84
2021/05/13 11:15:05;;;;;;;4.90;1.90;;;22.60;35.60;;;;;;5039885;28;20467;-85
2021/05/13 11:17:44;;;;;;;6.10;2.13;;;22.80;36.80;;;;;;5039874;28;20499;-84
2021/05/13 11:20:29;;;;;;;2.10;1.90;;;22.50;35.20;;;;;;5039515;28;20420;-84
2021/05/13 11:22:57;;;;;;;5.53;1.93;;;22.80;36.40;;;;;;5039858;28;20519;-85
2021/05/13 11:25:24;;;;;;;6.33;1.80;;;22.80;35.70;;;;;;5037688;28;20421;-84
2021/05/13 11:27:50;;;;;;;16.23;2.70;;;23.00;36.30;;;;;;5039381;28;20432;-84
2021/05/13 11:30:22;;;;;;;7.00;2.13;;;23.10;37.30;;;;;;5045506;28;20420;-85
2021/05/13 11:32:49;;;;;;;4.67;1.60;;;23.20;36.30;;;;;;5052540;28;20549;-85
2021/05/13 11:35:20;;;;;;;6.67;2.00;;;23.00;35.70;;;;;;5056710;28;20460;-85
2021/05/13 11:37:50;;;;;;;4.50;2.27;;;22.80;35.80;;;;;;5048123;28;20448;-86
2021/05/13 11:40:16;;;;;;;4.43;2.47;;;22.20;35.80;;;;;;5046143;28;20447;-84
2021/05/13 11:42:42;;;;;;;5.47;2.00;;;22.00;38.00;;;;;;5047059;28;20455;-84
2021/05/13 11:45:28;;;;;;;6.47;2.87;;;21.50;38.00;;;;;;5046932;28;20200;-84
2021/05/13 11:47:54;;;;;;;6.53;2.57;;;21.40;39.00;;;;;;5046595;28;20194;-84
2021/05/13 11:50:30;;;;;;;6.67;2.43;;;21.40;38.70;;;;;;5047281;28;20825;-85
2021/05/13 11:53:11;;;;;;;2.60;2.20;;;21.30;39.00;;;;;;5050592;28;20220;-85
2021/05/13 11:55:39;;;;;;;7.90;2.60;;;21.00;39.70;;;;;;5058244;28;20484;-85
2021/05/13 11:58:06;;;;;;;2.20;1.60;;;20.80;39.80;;;;;;5057465;28;20420;-85
2021/05/13 12:00:32;;;;;;;3.50;2.70;;;21.10;40.30;;;;;;5056854;28;20439;-84
2021/05/13 12:03:08;;;;;;;7.53;2.07;;;21.10;40.40;;;;;;5050620;28;20967;-84
2021/05/13 12:05:49;;;;;;;6.10;1.80;;;21.40;39.20;;;;;;5045326;28;20196;-85
2021/05/13 12:08:19;;;;;;;3.00;1.77;;;21.60;39.40;;;;;;5046927;28;20425;-85
2021/05/13 12:10:46;;;;;;;6.07;3.33;;;21.80;39.00;;;;;;5053863;28;20411;-84
2021/05/13 12:13:12;;;;;;;8.60;1.67;;;21.80;37.60;;;;;;5051823;28;20432;-85
2021/05/13 12:15:38;;;;;;;8.53;2.30;;;21.40;37.30;;;;;;5045426;28;20980;-84
2021/05/13 12:18:04;;;;;;;3.67;1.80;;;21.00;38.10;;;;;;5045547;28;20447;-85
2021/05/13 12:20:32;;;;;;;4.57;2.00;;;21.20;40.10;;;;;;5056060;28;20443;-85
2021/05/13 12:22:59;;;;;;;5.03;2.07;;;21.30;39.60;;;;;;5055325;28;20456;-84
2021/05/13 12:25:26;;;;;;;6.63;2.17;;;21.20;38.50;;;;;;5054207;28;20440;-84
2021/05/13 12:27:52;;;;;;;3.30;1.93;;;21.20;38.40;;;;;;5050736;28;20527;-84
2021/05/13 12:30:19;;;;;;;3.23;1.80;;;21.50;38.60;;;;;;5046752;28;20432;-84
2021/05/13 12:32:47;;;;;;;4.10;2.07;;;21.60;39.00;;;;;;5045036;28;20457;-84
2021/05/13 12:35:29;;;;;;;4.43;1.93;;;21.30;38.40;;;;;;5042802;28;20461;-84
2021/05/13 12:38:13;;;;;;;7.50;2.03;;;21.50;38.60;;;;;;5052546;28;20445;-84
2021/05/13 12:40:40;;;;;;;4.43;1.80;;;21.80;37.90;;;;;;5044879;28;20419;-84
2021/05/13 12:43:26;;;;;;;4.17;2.03;;;22.00;39.00;;;;;;5043536;28;20460;-85
2021/05/13 12:45:52;;;;;;;2.30;2.10;;;21.90;37.50;;;;;;5045056;28;20447;-85
2021/05/13 12:48:21;;;;;;;4.87;1.90;;;22.00;37.70;;;;;;5047785;28;20441;-85
2021/05/13 12:50:59;;;;;;;4.30;2.00;;;21.60;37.20;;;;;;5056534;28;20413;-85
2021/05/13 12:53:26;;;;;;;10.23;2.37;;;21.60;38.40;;;;;;5051330;28;20446;-85
2021/05/13 12:55:53;;;;;;;6.03;3.13;;;21.30;39.60;;;;;;5044648;28;20467;-84